createdAt,value
2023-11-18T00:01:54.068Z,101730.16
2023-11-18T00:06:55.843Z,101746.63
2023-11-18T00:11:57.440Z,101744.84
2023-11-18T00:17:00.374Z,101732.97
2023-11-18T00:22:02.055Z,101740.94
2023-11-18T00:27:07.647Z,101744.56
2023-11-18T00:32:09.386Z,101753.47
2023-11-18T00:37:11.044Z,101741.47
2023-11-18T00:42:12.610Z,101726.75
2023-11-18T00:52:33.841Z,101723.09
2023-11-18T00:57:36.241Z,101719.97
2023-11-18T01:02:40.126Z,101719.47
2023-11-18T01:07:42.487Z,101725.84
2023-11-18T01:12:47.227Z,101702.84
2023-11-18T01:17:49.715Z,101713.41
2023-11-18T01:22:51.582Z,101716.84
2023-11-18T01:27:53.179Z,101722.19
2023-11-18T01:32:54.823Z,101739.22
2023-11-18T01:37:56.650Z,101750.31
2023-11-18T01:42:58.252Z,101750.63
2023-11-18T01:47:59.973Z,101748.81
2023-11-18T01:53:02.202Z,101757.34
2023-11-18T01:58:08.995Z,101733.25
2023-11-18T02:03:10.773Z,101738.28
2023-11-18T02:08:14.760Z,101721.88
2023-11-18T02:13:32.421Z,101740.72
2023-11-18T02:18:35.023Z,101734.44
2023-11-18T02:23:36.808Z,101720.44
2023-11-18T02:28:38.658Z,101718.69
2023-11-18T02:34:00.584Z,101742.75
2023-11-18T02:39:08.456Z,101723.84
2023-11-18T02:44:11.651Z,101719.50
2023-11-18T02:49:13.685Z,101708.34
2023-11-18T02:54:17.636Z,101719.41
2023-11-18T02:59:19.415Z,101711.75
2023-11-18T03:04:21.026Z,101729.78
2023-11-18T03:09:22.561Z,101745.84
2023-11-18T03:14:24.592Z,101732.81
2023-11-18T03:19:26.237Z,101713.00
2023-11-18T03:24:29.516Z,101707.94
2023-11-18T03:29:31.186Z,101709.63
2023-11-18T03:34:33.744Z,101685.69
2023-11-18T03:39:35.563Z,101683.88
2023-11-18T03:44:38.703Z,101676.03
2023-11-18T03:49:40.450Z,101684.69
2023-11-18T03:54:43.037Z,101698.59
2023-11-18T03:59:44.655Z,101704.50
2023-11-18T04:04:46.350Z,101713.84
2023-11-18T04:09:48.024Z,101718.16
2023-11-18T04:14:49.859Z,101722.44
2023-11-18T04:19:51.557Z,101713.47
2023-11-18T04:24:53.192Z,101691.94
2023-11-18T04:29:54.804Z,101676.47
2023-11-18T04:34:56.727Z,101679.06
2023-11-18T04:39:58.334Z,101651.44
2023-11-18T04:45:00.305Z,101646.56
2023-11-18T04:50:01.966Z,101630.50
2023-11-18T04:55:06.595Z,101636.31
2023-11-18T05:00:12.034Z,101620.81
2023-11-18T05:05:13.862Z,101619.72
2023-11-18T05:10:15.556Z,101619.88
2023-11-18T05:15:17.153Z,101602.59
2023-11-18T05:20:18.992Z,101593.88
2023-11-18T05:25:21.155Z,101583.41
2023-11-18T05:30:24.433Z,101570.47
2023-11-18T05:35:29.525Z,101584.97
2023-11-18T05:40:31.193Z,101580.69
2023-11-18T05:45:55.351Z,101578.09
2023-11-18T05:50:56.956Z,101590.25
2023-11-18T05:55:58.497Z,101565.16
2023-11-18T06:01:00.078Z,101566.84
2023-11-18T06:06:01.668Z,101561.53
2023-11-18T06:11:13.998Z,101565.72
2023-11-18T06:16:25.466Z,101561.31
2023-11-18T06:21:32.168Z,101555.22
2023-11-18T06:26:37.296Z,101554.22
2023-11-18T06:31:39.113Z,101547.97
2023-11-18T06:36:40.793Z,101546.16
2023-11-18T06:41:50.074Z,101534.78
2023-11-18T06:46:52.282Z,101538.69
2023-11-18T06:51:54.255Z,101548.94
2023-11-18T06:56:55.881Z,101550.69
2023-11-18T07:01:57.470Z,101564.28
2023-11-18T07:06:59.260Z,101553.84
2023-11-18T07:12:00.777Z,101574.31
2023-11-18T07:17:02.453Z,101586.25
2023-11-18T07:22:07.670Z,101579.22
2023-11-18T07:27:12.503Z,101585.09
2023-11-18T07:32:15.125Z,101562.44
2023-11-18T07:37:17.672Z,101551.94
2023-11-18T07:42:19.523Z,101555.25
2023-11-18T07:47:22.685Z,101547.28
2023-11-18T07:52:25.093Z,101547.94
2023-11-18T07:57:26.671Z,101537.31
2023-11-18T08:02:29.178Z,101540.44
2023-11-18T08:07:30.795Z,101531.63
2023-11-18T08:12:36.030Z,101533.91
2023-11-18T08:17:38.049Z,101538.00
2023-11-18T08:22:39.828Z,101527.53
2023-11-18T08:27:42.143Z,101547.22
2023-11-18T08:32:46.468Z,101534.81
2023-11-18T08:37:48.924Z,101550.13
2023-11-18T08:42:52.124Z,101554.31
2023-11-18T08:47:54.546Z,101536.06
2023-11-18T08:53:00.124Z,101540.91
2023-11-18T08:58:04.992Z,101540.75
2023-11-18T09:03:07.244Z,101529.19
2023-11-18T09:08:09.083Z,101537.63
2023-11-18T09:13:13.129Z,101525.34
2023-11-18T09:18:14.839Z,101531.03
2023-11-18T09:23:19.933Z,101514.44
2023-11-18T09:28:25.699Z,101518.63
2023-11-18T09:33:33.796Z,101499.50
2023-11-18T09:38:36.981Z,101485.41
2023-11-18T09:43:49.353Z,101501.84
2023-11-18T09:49:03.092Z,101500.94
2023-11-18T09:54:19.220Z,101497.38
2023-11-18T09:59:31.233Z,101486.66
2023-11-18T10:04:34.305Z,101485.59
2023-11-18T10:09:40.124Z,101479.38
2023-11-18T10:14:44.902Z,101480.69
2023-11-18T10:19:57.301Z,101465.63
2023-11-18T10:25:02.086Z,101441.03
2023-11-18T10:30:20.387Z,101420.84
2023-11-18T10:35:22.428Z,101412.16
2023-11-18T10:40:25.386Z,101398.75
2023-11-18T10:45:28.792Z,101396.81
2023-11-18T10:50:33.403Z,101373.28
2023-11-18T10:55:39.372Z,101357.59
2023-11-18T11:01:01.609Z,101363.63
2023-11-18T11:06:18.348Z,101371.38
2023-11-18T11:11:26.820Z,101365.34
2023-11-18T11:16:52.643Z,101331.97
2023-11-18T11:22:07.411Z,101349.56
2023-11-18T11:27:40.040Z,101350.34
2023-11-18T11:32:54.888Z,101344.97
2023-11-18T11:38:05.160Z,101339.84
2023-11-18T11:43:10.795Z,101352.88
2023-11-18T11:48:16.572Z,101333.91
2023-11-18T11:53:24.137Z,101319.06
2023-11-18T11:58:34.511Z,101326.72
2023-11-18T12:03:46.215Z,101315.47
2023-11-18T12:08:52.323Z,101323.22
2023-11-18T12:14:10.961Z,101319.75
2023-11-18T12:19:37.501Z,101302.78
2023-11-18T12:24:39.842Z,101286.16
2023-11-18T12:29:44.942Z,101242.97
2023-11-18T12:34:55.024Z,101228.25
2023-11-18T12:40:05.738Z,101210.94
2023-11-18T12:45:37.516Z,101227.59
2023-11-18T12:50:46.733Z,101208.13
2023-11-18T12:55:49.460Z,101168.09
2023-11-18T13:00:51.207Z,101149.72
2023-11-18T13:05:53.291Z,101128.72
2023-11-18T13:10:54.937Z,101150.25
2023-11-18T13:15:56.588Z,101137.22
2023-11-18T13:20:59.156Z,101124.88
2023-11-18T13:26:01.555Z,101086.78
2023-11-18T13:31:04.550Z,101035.41
2023-11-18T13:36:07.823Z,101031.81
2023-11-18T13:41:10.516Z,101027.44
2023-11-18T13:46:15.750Z,101017.78
2023-11-18T13:51:19.091Z,101016.84
2023-11-18T13:56:21.330Z,101003.59
2023-11-18T14:01:23.226Z,100987.63
2023-11-18T14:06:28.497Z,100957.94
2023-11-18T14:11:30.679Z,100958.69
2023-11-18T14:16:32.322Z,100945.50
2023-11-18T14:21:33.974Z,100935.84
2023-11-18T14:26:35.694Z,100919.34
2023-11-18T14:31:37.513Z,100906.56
2023-11-18T14:36:39.193Z,100878.13
2023-11-18T14:41:41.725Z,100891.41
2023-11-18T14:46:43.706Z,100895.19
2023-11-18T14:51:45.269Z,100896.09
2023-11-18T14:56:50.422Z,100886.84
2023-11-18T15:01:53.387Z,100872.44
2023-11-18T15:07:00.652Z,100862.34
2023-11-18T15:12:02.736Z,100877.38
2023-11-18T15:17:04.616Z,100840.25
2023-11-18T15:22:06.294Z,100838.66
2023-11-18T15:27:07.816Z,100833.69
2023-11-18T15:32:09.635Z,100817.22
2023-11-18T15:37:11.510Z,100803.41
2023-11-18T15:42:14.877Z,100801.75
2023-11-18T15:47:18.336Z,100780.06
2023-11-18T15:52:19.913Z,100760.97
2023-11-18T15:57:22.642Z,100749.03
2023-11-18T16:02:25.060Z,100741.16
2023-11-18T16:07:26.646Z,100735.19
2023-11-18T16:12:30.752Z,100717.78
2023-11-18T16:17:32.340Z,100731.56
2023-11-18T16:22:35.557Z,100732.31
2023-11-18T16:27:37.377Z,100716.78
2023-11-18T16:32:38.940Z,100727.13
2023-11-18T16:37:40.898Z,100698.38
2023-11-18T16:42:43.644Z,100674.94
2023-11-18T16:47:46.933Z,100668.78
2023-11-18T16:52:51.524Z,100675.50
2023-11-18T16:57:54.692Z,100674.59
2023-11-18T17:02:59.431Z,100678.03
2023-11-18T17:08:02.577Z,100657.94
2023-11-18T17:13:05.669Z,100645.84
2023-11-18T17:18:07.503Z,100631.06
2023-11-18T17:23:09.245Z,100649.28
2023-11-18T17:28:10.889Z,100643.16
2023-11-18T17:33:12.950Z,100635.25
2023-11-18T17:38:14.556Z,100630.13
2023-11-18T17:43:16.139Z,100624.91
2023-11-18T17:48:17.761Z,100626.78
2023-11-18T17:53:19.882Z,100601.38
2023-11-18T17:58:21.536Z,100603.06
2023-11-18T18:03:23.078Z,100614.22
2023-11-18T18:08:24.737Z,100610.66
2023-11-18T18:13:26.364Z,100614.97
2023-11-18T18:18:28.112Z,100643.53
2023-11-18T18:23:30.493Z,100646.91
2023-11-18T18:28:32.079Z,100614.78
2023-11-18T18:33:33.574Z,100647.66
2023-11-18T18:38:35.115Z,100623.19
2023-11-18T18:43:36.635Z,100597.97
2023-11-18T18:48:38.290Z,100589.97
2023-11-18T18:53:39.822Z,100589.13
2023-11-18T18:58:41.420Z,100596.03
2023-11-18T19:03:43.092Z,100595.84
2023-11-18T19:08:44.715Z,100603.41
2023-11-18T19:13:46.314Z,100605.75
2023-11-18T19:18:47.889Z,100597.81
2023-11-18T19:23:49.440Z,100583.78
2023-11-18T19:28:50.978Z,100588.81
2023-11-18T19:33:52.536Z,100588.53
2023-11-18T19:38:54.125Z,100570.03
2023-11-18T19:43:56.857Z,100583.81
2023-11-18T19:48:58.656Z,100569.56
2023-11-18T19:54:00.204Z,100548.44
2023-11-18T19:59:01.818Z,100544.81
2023-11-18T20:04:03.605Z,100549.84
2023-11-18T20:09:07.525Z,100537.31
2023-11-18T20:14:09.136Z,100535.47
2023-11-18T20:19:10.785Z,100522.34
2023-11-18T20:24:12.343Z,100520.38
2023-11-18T20:29:14.724Z,100491.41
2023-11-18T20:34:16.496Z,100486.00
2023-11-18T20:39:20.702Z,100494.66
2023-11-18T20:44:22.309Z,100477.88
2023-11-18T20:49:23.924Z,100468.19
2023-11-18T20:54:26.413Z,100466.13
2023-11-18T20:59:28.144Z,100461.56
2023-11-18T21:04:30.570Z,100458.66
2023-11-18T21:09:32.256Z,100454.81
2023-11-18T21:14:34.672Z,100462.25
2023-11-18T21:19:36.225Z,100464.28
2023-11-18T21:24:37.719Z,100461.38
2023-11-18T21:29:39.284Z,100444.44
2023-11-18T21:34:44.255Z,100442.28
2023-11-18T21:39:46.159Z,100430.69
2023-11-18T21:44:48.633Z,100420.06
2023-11-18T21:49:52.821Z,100407.63
2023-11-18T21:54:54.642Z,100422.16
2023-11-18T21:59:56.228Z,100405.44
2023-11-18T22:04:59.277Z,100413.09
2023-11-18T22:10:00.944Z,100417.38
2023-11-18T22:15:05.487Z,100379.03
2023-11-18T22:20:13.538Z,100396.28
2023-11-18T22:25:16.134Z,100420.50
2023-11-18T22:30:18.381Z,100410.81
2023-11-18T22:35:20.985Z,100401.91
2023-11-18T22:40:23.166Z,100393.97
2023-11-18T22:45:24.690Z,100398.47
2023-11-18T22:50:26.402Z,100380.72
2023-11-18T22:55:28.376Z,100371.94
2023-11-18T23:00:36.006Z,100363.88
2023-11-18T23:05:40.479Z,100360.97
2023-11-18T23:10:42.205Z,100362.56
2023-11-18T23:21:03.927Z,100361.09
2023-11-18T23:26:06.741Z,100353.75
2023-11-18T23:31:12.327Z,100362.09
2023-11-18T23:36:17.055Z,100349.78
2023-11-18T23:41:18.785Z,100345.16
2023-11-18T23:46:20.725Z,100332.81
2023-11-18T23:51:22.280Z,100322.16
2023-11-18T23:56:23.806Z,100300.28
